sensor_id;sensor_type;location;lat;lon;timestamp;temperature;humidity
6690;DHT22;3382;51.576;8.076;2024-02-21T00:02:05;12.60;99.90
6690;DHT22;3382;51.576;8.076;2024-02-21T00:04:30;12.60;99.90
6690;DHT22;3382;51.576;8.076;2024-02-21T00:06:56;12.80;99.90
6690;DHT22;3382;51.576;8.076;2024-02-21T00:09:21;12.90;99.90
6690;DHT22;3382;51.576;8.076;2024-02-21T00:11:47;12.70;99.90
6690;DHT22;3382;51.576;8.076;2024-02-21T00:14:13;12.60;99.90
6690;DHT22;3382;51.576;8.076;2024-02-21T00:16:38;12.60;99.90
6690;DHT22;3382;51.576;8.076;2024-02-21T00:19:04;12.80;99.90
6690;DHT22;3382;51.576;8.076;2024-02-21T00:21:30;12.70;99.90
6690;DHT22;3382;51.576;8.076;2024-02-21T00:23:55;12.70;99.90
6690;DHT22;3382;51.576;8.076;2024-02-21T00:26:21;12.70;99.90
6690;DHT22;3382;51.576;8.076;2024-02-21T00:28:46;12.60;99.90
6690;DHT22;3382;51.576;8.076;2024-02-21T00:31:12;12.60;99.90
6690;DHT22;3382;51.576;8.076;2024-02-21T00:33:38;12.60;99.90
6690;DHT22;3382;51.576;8.076;2024-02-21T00:36:03;12.60;99.90
6690;DHT22;3382;51.576;8.076;2024-02-21T00:38:29;12.60;99.90
6690;DHT22;3382;51.576;8.076;2024-02-21T00:40:54;12.70;99.90
6690;DHT22;3382;51.576;8.076;2024-02-21T00:43:20;12.70;99.90
6690;DHT22;3382;51.576;8.076;2024-02-21T00:45:49;12.60;99.90
6690;DHT22;3382;51.576;8.076;2024-02-21T00:48:14;12.80;99.90
6690;DHT22;3382;51.576;8.076;2024-02-21T00:50:40;12.70;99.90
6690;DHT22;3382;51.576;8.076;2024-02-21T00:53:05;12.60;99.90
6690;DHT22;3382;51.576;8.076;2024-02-21T00:55:31;12.70;99.90
6690;DHT22;3382;51.576;8.076;2024-02-21T00:57:56;12.70;99.90
6690;DHT22;3382;51.576;8.076;2024-02-21T01:00:22;12.90;99.90
6690;DHT22;3382;51.576;8.076;2024-02-21T01:02:47;12.70;99.90
6690;DHT22;3382;51.576;8.076;2024-02-21T01:05:13;12.90;99.90
6690;DHT22;3382;51.576;8.076;2024-02-21T01:07:38;12.70;99.90
6690;DHT22;3382;51.576;8.076;2024-02-21T01:10:04;12.70;99.90
6690;DHT22;3382;51.576;8.076;2024-02-21T01:12:30;12.70;99.90
6690;DHT22;3382;51.576;8.076;2024-02-21T01:14:56;12.70;99.90
6690;DHT22;3382;51.576;8.076;2024-02-21T01:17:21;12.70;99.90
6690;DHT22;3382;51.576;8.076;2024-02-21T01:19:47;12.70;99.90
6690;DHT22;3382;51.576;8.076;2024-02-21T01:22:13;12.60;99.90
6690;DHT22;3382;51.576;8.076;2024-02-21T01:24:38;12.70;99.90
6690;DHT22;3382;51.576;8.076;2024-02-21T01:27:04;12.60;99.90
6690;DHT22;3382;51.576;8.076;2024-02-21T01:29:29;12.90;99.90
6690;DHT22;3382;51.576;8.076;2024-02-21T01:31:55;12.60;99.90
6690;DHT22;3382;51.576;8.076;2024-02-21T01:34:20;12.70;99.90
6690;DHT22;3382;51.576;8.076;2024-02-21T01:36:46;13.00;99.90
6690;DHT22;3382;51.576;8.076;2024-02-21T01:39:12;12.70;99.90
6690;DHT22;3382;51.576;8.076;2024-02-21T01:41:37;12.60;99.90
6690;DHT22;3382;51.576;8.076;2024-02-21T01:44:03;12.70;99.90
6690;DHT22;3382;51.576;8.076;2024-02-21T01:46:28;12.60;99.90
6690;DHT22;3382;51.576;8.076;2024-02-21T01:48:57;12.70;99.90
6690;DHT22;3382;51.576;8.076;2024-02-21T01:51:26;12.60;99.90
6690;DHT22;3382;51.576;8.076;2024-02-21T01:53:52;12.60;99.90
6690;DHT22;3382;51.576;8.076;2024-02-21T01:56:18;12.60;99.90
6690;DHT22;3382;51.576;8.076;2024-02-21T01:58:45;12.60;99.90
6690;DHT22;3382;51.576;8.076;2024-02-21T02:01:12;12.60;99.90
6690;DHT22;3382;51.576;8.076;2024-02-21T02:03:38;12.80;99.90
6690;DHT22;3382;51.576;8.076;2024-02-21T02:06:05;12.60;99.90
6690;DHT22;3382;51.576;8.076;2024-02-21T02:08:31;12.60;99.90
6690;DHT22;3382;51.576;8.076;2024-02-21T02:10:57;12.60;99.90
6690;DHT22;3382;51.576;8.076;2024-02-21T02:13:23;12.60;99.90
6690;DHT22;3382;51.576;8.076;2024-02-21T02:15:49;12.60;99.90
6690;DHT22;3382;51.576;8.076;2024-02-21T02:18:17;12.60;99.90
6690;DHT22;3382;51.576;8.076;2024-02-21T02:20:44;12.80;99.90
6690;DHT22;3382;51.576;8.076;2024-02-21T02:23:29;12.60;99.90
6690;DHT22;3382;51.576;8.076;2024-02-21T02:25:54;12.60;99.90
6690;DHT22;3382;51.576;8.076;2024-02-21T02:28:21;12.60;99.90
6690;DHT22;3382;51.576;8.076;2024-02-21T02:30:47;12.60;99.90
6690;DHT22;3382;51.576;8.076;2024-02-21T02:33:13;12.60;99.90
6690;DHT22;3382;51.576;8.076;2024-02-21T02:35:38;12.80;99.90
6690;DHT22;3382;51.576;8.076;2024-02-21T02:38:04;13.10;99.90
6690;DHT22;3382;51.576;8.076;2024-02-21T02:40:31;12.70;99.90
6690;DHT22;3382;51.576;8.076;2024-02-21T02:42:57;12.70;99.90
6690;DHT22;3382;51.576;8.076;2024-02-21T02:45:23;12.60;99.90
6690;DHT22;3382;51.576;8.076;2024-02-21T02:47:49;12.80;99.90
6690;DHT22;3382;51.576;8.076;2024-02-21T02:50:15;12.90;99.90
6690;DHT22;3382;51.576;8.076;2024-02-21T02:52:40;12.60;99.90
6690;DHT22;3382;51.576;8.076;2024-02-21T02:55:06;12.70;99.90
6690;DHT22;3382;51.576;8.076;2024-02-21T02:57:32;12.70;99.90
6690;DHT22;3382;51.576;8.076;2024-02-21T02:59:58;12.70;99.90
6690;DHT22;3382;51.576;8.076;2024-02-21T03:02:23;12.80;99.90
6690;DHT22;3382;51.576;8.076;2024-02-21T03:04:49;12.60;99.90
6690;DHT22;3382;51.576;8.076;2024-02-21T03:07:15;12.70;99.90
6690;DHT22;3382;51.576;8.076;2024-02-21T03:09:41;12.60;99.90
6690;DHT22;3382;51.576;8.076;2024-02-21T03:12:10;12.80;99.90
6690;DHT22;3382;51.576;8.076;2024-02-21T03:14:35;12.60;99.90
6690;DHT22;3382;51.576;8.076;2024-02-21T03:17:01;12.60;99.90
6690;DHT22;3382;51.576;8.076;2024-02-21T03:19:28;12.70;99.90
6690;DHT22;3382;51.576;8.076;2024-02-21T03:21:53;12.60;99.90
6690;DHT22;3382;51.576;8.076;2024-02-21T03:24:19;12.50;99.90
6690;DHT22;3382;51.576;8.076;2024-02-21T03:26:45;12.50;99.90
6690;DHT22;3382;51.576;8.076;2024-02-21T03:29:15;12.40;99.90
6690;DHT22;3382;51.576;8.076;2024-02-21T03:31:41;12.40;99.90
6690;DHT22;3382;51.576;8.076;2024-02-21T03:34:07;12.30;99.90
6690;DHT22;3382;51.576;8.076;2024-02-21T03:36:32;12.30;99.90
6690;DHT22;3382;51.576;8.076;2024-02-21T03:38:58;12.30;99.90
6690;DHT22;3382;51.576;8.076;2024-02-21T03:41:24;12.20;99.90
6690;DHT22;3382;51.576;8.076;2024-02-21T03:43:50;12.30;99.90
6690;DHT22;3382;51.576;8.076;2024-02-21T03:46:15;12.20;99.90
6690;DHT22;3382;51.576;8.076;2024-02-21T03:48:41;12.20;99.90
6690;DHT22;3382;51.576;8.076;2024-02-21T03:51:07;12.20;99.90
6690;DHT22;3382;51.576;8.076;2024-02-21T03:53:32;12.10;99.90
6690;DHT22;3382;51.576;8.076;2024-02-21T03:56:01;12.10;99.90
6690;DHT22;3382;51.576;8.076;2024-02-21T03:58:32;12.20;99.90
6690;DHT22;3382;51.576;8.076;2024-02-21T04:01:00;12.10;99.90
6690;DHT22;3382;51.576;8.076;2024-02-21T04:03:26;12.10;99.90
6690;DHT22;3382;51.576;8.076;2024-02-21T04:05:51;12.10;99.90
6690;DHT22;3382;51.576;8.076;2024-02-21T04:08:17;11.80;99.90
6690;DHT22;3382;51.576;8.076;2024-02-21T04:10:43;12.00;99.90
6690;DHT22;3382;51.576;8.076;2024-02-21T04:13:09;12.00;99.90
6690;DHT22;3382;51.576;8.076;2024-02-21T04:15:35;12.00;99.90
6690;DHT22;3382;51.576;8.076;2024-02-21T04:18:00;12.00;99.90
6690;DHT22;3382;51.576;8.076;2024-02-21T04:20:26;12.00;99.90
6690;DHT22;3382;51.576;8.076;2024-02-21T04:22:52;12.00;99.90
6690;DHT22;3382;51.576;8.076;2024-02-21T04:25:17;12.00;99.90
6690;DHT22;3382;51.576;8.076;2024-02-21T04:27:43;12.10;99.90
6690;DHT22;3382;51.576;8.076;2024-02-21T04:30:09;12.10;99.90
6690;DHT22;3382;51.576;8.076;2024-02-21T04:32:35;12.10;99.90
6690;DHT22;3382;51.576;8.076;2024-02-21T04:35:01;12.10;99.90
6690;DHT22;3382;51.576;8.076;2024-02-21T04:37:26;12.10;99.90
6690;DHT22;3382;51.576;8.076;2024-02-21T04:39:52;12.10;99.90
6690;DHT22;3382;51.576;8.076;2024-02-21T04:42:17;12.20;99.90
6690;DHT22;3382;51.576;8.076;2024-02-21T04:44:43;12.20;99.90
6690;DHT22;3382;51.576;8.076;2024-02-21T04:47:09;12.20;99.90
6690;DHT22;3382;51.576;8.076;2024-02-21T04:49:34;12.20;99.90
6690;DHT22;3382;51.576;8.076;2024-02-21T04:52:00;12.20;99.90
6690;DHT22;3382;51.576;8.076;2024-02-21T04:54:26;12.20;99.90
6690;DHT22;3382;51.576;8.076;2024-02-21T04:56:52;12.20;99.90
6690;DHT22;3382;51.576;8.076;2024-02-21T04:59:17;12.20;99.90
6690;DHT22;3382;51.576;8.076;2024-02-21T05:01:43;12.50;99.90
6690;DHT22;3382;51.576;8.076;2024-02-21T05:04:08;12.30;99.90
6690;DHT22;3382;51.576;8.076;2024-02-21T05:06:38;12.30;99.90
6690;DHT22;3382;51.576;8.076;2024-02-21T05:09:04;12.70;99.90
6690;DHT22;3382;51.576;8.076;2024-02-21T05:11:31;12.30;99.90
6690;DHT22;3382;51.576;8.076;2024-02-21T05:13:56;12.30;99.90
6690;DHT22;3382;51.576;8.076;2024-02-21T05:16:22;12.30;99.90
6690;DHT22;3382;51.576;8.076;2024-02-21T05:18:47;12.30;99.90
6690;DHT22;3382;51.576;8.076;2024-02-21T05:21:13;12.40;99.90
6690;DHT22;3382;51.576;8.076;2024-02-21T05:23:38;12.30;99.90
6690;DHT22;3382;51.576;8.076;2024-02-21T05:26:07;12.30;99.90
6690;DHT22;3382;51.576;8.076;2024-02-21T05:28:32;12.40;99.90
6690;DHT22;3382;51.576;8.076;2024-02-21T05:30:58;12.50;99.90
6690;DHT22;3382;51.576;8.076;2024-02-21T05:33:24;12.70;99.90
6690;DHT22;3382;51.576;8.076;2024-02-21T05:35:50;12.40;99.90
6690;DHT22;3382;51.576;8.076;2024-02-21T05:38:16;12.40;99.90
6690;DHT22;3382;51.576;8.076;2024-02-21T05:40:41;12.40;99.90
6690;DHT22;3382;51.576;8.076;2024-02-21T05:43:07;12.40;99.90
6690;DHT22;3382;51.576;8.076;2024-02-21T05:45:34;12.40;99.90
6690;DHT22;3382;51.576;8.076;2024-02-21T05:48:00;12.40;99.90
6690;DHT22;3382;51.576;8.076;2024-02-21T05:50:25;12.40;99.90
6690;DHT22;3382;51.576;8.076;2024-02-21T05:52:52;12.40;99.90
6690;DHT22;3382;51.576;8.076;2024-02-21T05:55:18;12.60;99.90
6690;DHT22;3382;51.576;8.076;2024-02-21T05:57:44;12.50;99.90
6690;DHT22;3382;51.576;8.076;2024-02-21T06:00:09;12.80;99.90
6690;DHT22;3382;51.576;8.076;2024-02-21T06:02:35;12.40;99.90
6690;DHT22;3382;51.576;8.076;2024-02-21T06:05:01;12.50;99.90
6690;DHT22;3382;51.576;8.076;2024-02-21T06:07:26;12.40;99.90
6690;DHT22;3382;51.576;8.076;2024-02-21T06:09:52;12.40;99.90
6690;DHT22;3382;51.576;8.076;2024-02-21T06:12:17;12.80;99.90
6690;DHT22;3382;51.576;8.076;2024-02-21T06:14:43;12.90;99.90
6690;DHT22;3382;51.576;8.076;2024-02-21T06:17:08;12.50;99.90
6690;DHT22;3382;51.576;8.076;2024-02-21T06:19:34;12.50;99.90
6690;DHT22;3382;51.576;8.076;2024-02-21T06:21:59;12.40;99.90
6690;DHT22;3382;51.576;8.076;2024-02-21T06:24:25;12.40;99.90
6690;DHT22;3382;51.576;8.076;2024-02-21T06:26:50;12.50;99.90
6690;DHT22;3382;51.576;8.076;2024-02-21T06:29:16;12.50;99.90
6690;DHT22;3382;51.576;8.076;2024-02-21T06:31:42;12.40;99.90
6690;DHT22;3382;51.576;8.076;2024-02-21T06:34:07;12.40;99.90
6690;DHT22;3382;51.576;8.076;2024-02-21T06:36:33;12.40;99.90
6690;DHT22;3382;51.576;8.076;2024-02-21T06:38:59;12.40;99.90
6690;DHT22;3382;51.576;8.076;2024-02-21T06:41:24;12.50;99.90
6690;DHT22;3382;51.576;8.076;2024-02-21T06:43:50;12.60;99.90
6690;DHT22;3382;51.576;8.076;2024-02-21T06:46:26;12.50;99.90
6690;DHT22;3382;51.576;8.076;2024-02-21T06:48:52;12.50;99.90
6690;DHT22;3382;51.576;8.076;2024-02-21T06:51:17;12.50;99.90
6690;DHT22;3382;51.576;8.076;2024-02-21T06:53:43;12.70;99.90
6690;DHT22;3382;51.576;8.076;2024-02-21T06:56:09;12.50;99.90
6690;DHT22;3382;51.576;8.076;2024-02-21T06:58:35;12.80;99.90
6690;DHT22;3382;51.576;8.076;2024-02-21T07:01:01;12.90;99.90
6690;DHT22;3382;51.576;8.076;2024-02-21T07:03:27;12.50;99.90
6690;DHT22;3382;51.576;8.076;2024-02-21T07:05:52;12.50;99.90
6690;DHT22;3382;51.576;8.076;2024-02-21T07:08:18;12.60;99.90
6690;DHT22;3382;51.576;8.076;2024-02-21T07:10:44;12.50;99.90
6690;DHT22;3382;51.576;8.076;2024-02-21T07:13:09;12.60;99.90
6690;DHT22;3382;51.576;8.076;2024-02-21T07:15:35;12.60;99.90
6690;DHT22;3382;51.576;8.076;2024-02-21T07:18:01;12.60;99.90
6690;DHT22;3382;51.576;8.076;2024-02-21T07:20:27;12.60;99.90
6690;DHT22;3382;51.576;8.076;2024-02-21T07:22:53;12.70;99.90
6690;DHT22;3382;51.576;8.076;2024-02-21T07:25:18;12.70;99.90
6690;DHT22;3382;51.576;8.076;2024-02-21T07:27:44;12.90;99.90
6690;DHT22;3382;51.576;8.076;2024-02-21T07:30:10;12.70;99.90
6690;DHT22;3382;51.576;8.076;2024-02-21T07:32:36;12.70;99.90
6690;DHT22;3382;51.576;8.076;2024-02-21T07:35:02;12.80;99.90
6690;DHT22;3382;51.576;8.076;2024-02-21T07:37:27;12.80;99.90
6690;DHT22;3382;51.576;8.076;2024-02-21T07:39:53;12.90;99.90
6690;DHT22;3382;51.576;8.076;2024-02-21T07:42:18;13.00;99.90
6690;DHT22;3382;51.576;8.076;2024-02-21T07:44:44;12.90;99.90
6690;DHT22;3382;51.576;8.076;2024-02-21T07:47:09;12.90;99.90
6690;DHT22;3382;51.576;8.076;2024-02-21T07:49:44;12.90;99.90
6690;DHT22;3382;51.576;8.076;2024-02-21T07:52:11;13.00;99.90
6690;DHT22;3382;51.576;8.076;2024-02-21T07:54:37;13.00;99.90
6690;DHT22;3382;51.576;8.076;2024-02-21T07:57:02;13.00;99.90
6690;DHT22;3382;51.576;8.076;2024-02-21T07:59:29;13.10;99.90
6690;DHT22;3382;51.576;8.076;2024-02-21T08:01:57;13.10;99.90
6690;DHT22;3382;51.576;8.076;2024-02-21T08:04:23;13.10;99.90
6690;DHT22;3382;51.576;8.076;2024-02-21T08:06:53;13.10;99.90
6690;DHT22;3382;51.576;8.076;2024-02-21T08:09:19;13.10;99.90
6690;DHT22;3382;51.576;8.076;2024-02-21T08:11:44;13.20;99.90
6690;DHT22;3382;51.576;8.076;2024-02-21T08:14:10;13.10;99.90
6690;DHT22;3382;51.576;8.076;2024-02-21T08:16:35;13.20;99.90
6690;DHT22;3382;51.576;8.076;2024-02-21T08:19:01;13.20;99.90
6690;DHT22;3382;51.576;8.076;2024-02-21T08:21:29;13.40;99.90
6690;DHT22;3382;51.576;8.076;2024-02-21T08:23:55;13.30;99.90
6690;DHT22;3382;51.576;8.076;2024-02-21T08:26:20;13.30;99.90
6690;DHT22;3382;51.576;8.076;2024-02-21T08:28:46;13.50;99.90
6690;DHT22;3382;51.576;8.076;2024-02-21T08:31:18;13.40;99.90
6690;DHT22;3382;51.576;8.076;2024-02-21T08:33:44;13.60;99.90
6690;DHT22;3382;51.576;8.076;2024-02-21T08:36:17;13.40;99.90
6690;DHT22;3382;51.576;8.076;2024-02-21T08:38:43;13.40;99.90
6690;DHT22;3382;51.576;8.076;2024-02-21T08:41:09;13.50;99.90
6690;DHT22;3382;51.576;8.076;2024-02-21T08:43:34;13.50;99.90
6690;DHT22;3382;51.576;8.076;2024-02-21T08:46:01;13.50;99.90
6690;DHT22;3382;51.576;8.076;2024-02-21T08:48:26;13.60;99.90
6690;DHT22;3382;51.576;8.076;2024-02-21T08:50:52;13.70;99.90
6690;DHT22;3382;51.576;8.076;2024-02-21T08:53:19;13.90;99.90
6690;DHT22;3382;51.576;8.076;2024-02-21T08:55:45;13.60;99.90
6690;DHT22;3382;51.576;8.076;2024-02-21T08:58:11;13.60;99.90
6690;DHT22;3382;51.576;8.076;2024-02-21T09:00:37;13.60;99.90
6690;DHT22;3382;51.576;8.076;2024-02-21T09:03:03;13.60;99.90
6690;DHT22;3382;51.576;8.076;2024-02-21T09:05:28;13.70;99.90
6690;DHT22;3382;51.576;8.076;2024-02-21T09:07:54;13.70;99.90
6690;DHT22;3382;51.576;8.076;2024-02-21T09:10:20;13.90;99.90
6690;DHT22;3382;51.576;8.076;2024-02-21T09:12:46;13.80;99.90
6690;DHT22;3382;51.576;8.076;2024-02-21T09:15:12;13.80;99.90
6690;DHT22;3382;51.576;8.076;2024-02-21T09:17:38;13.80;99.90
6690;DHT22;3382;51.576;8.076;2024-02-21T09:20:05;13.80;99.90
6690;DHT22;3382;51.576;8.076;2024-02-21T09:22:31;13.80;99.90
6690;DHT22;3382;51.576;8.076;2024-02-21T09:25:00;13.80;99.90
6690;DHT22;3382;51.576;8.076;2024-02-21T09:27:25;13.90;99.90
6690;DHT22;3382;51.576;8.076;2024-02-21T09:29:51;13.90;99.90
6690;DHT22;3382;51.576;8.076;2024-02-21T09:32:17;14.00;99.90
6690;DHT22;3382;51.576;8.076;2024-02-21T09:34:44;13.90;99.90
6690;DHT22;3382;51.576;8.076;2024-02-21T09:37:10;13.90;99.90
6690;DHT22;3382;51.576;8.076;2024-02-21T09:39:36;13.90;99.90
6690;DHT22;3382;51.576;8.076;2024-02-21T09:42:06;14.10;99.90
6690;DHT22;3382;51.576;8.076;2024-02-21T09:44:37;14.00;99.90
6690;DHT22;3382;51.576;8.076;2024-02-21T09:47:19;14.00;99.90
6690;DHT22;3382;51.576;8.076;2024-02-21T09:49:48;14.00;99.90
6690;DHT22;3382;51.576;8.076;2024-02-21T09:52:15;14.10;99.90
6690;DHT22;3382;51.576;8.076;2024-02-21T09:54:41;14.20;99.90
6690;DHT22;3382;51.576;8.076;2024-02-21T09:57:10;14.20;99.90
6690;DHT22;3382;51.576;8.076;2024-02-21T09:59:35;14.20;99.90
6690;DHT22;3382;51.576;8.076;2024-02-21T10:02:01;14.60;99.90
6690;DHT22;3382;51.576;8.076;2024-02-21T10:04:27;14.60;99.90
6690;DHT22;3382;51.576;8.076;2024-02-21T10:06:54;14.50;99.90
6690;DHT22;3382;51.576;8.076;2024-02-21T10:09:23;14.60;99.90
6690;DHT22;3382;51.576;8.076;2024-02-21T10:11:50;14.60;99.90
6690;DHT22;3382;51.576;8.076;2024-02-21T10:14:16;14.70;99.90
6690;DHT22;3382;51.576;8.076;2024-02-21T10:16:44;14.70;99.90
6690;DHT22;3382;51.576;8.076;2024-02-21T10:19:17;14.70;99.90
6690;DHT22;3382;51.576;8.076;2024-02-21T10:21:42;14.80;99.90
6690;DHT22;3382;51.576;8.076;2024-02-21T10:24:08;14.70;99.90
6690;DHT22;3382;51.576;8.076;2024-02-21T10:26:35;14.70;99.90
6690;DHT22;3382;51.576;8.076;2024-02-21T10:29:02;14.80;99.90
6690;DHT22;3382;51.576;8.076;2024-02-21T10:31:28;14.70;99.90
6690;DHT22;3382;51.576;8.076;2024-02-21T10:34:00;14.70;99.90
6690;DHT22;3382;51.576;8.076;2024-02-21T10:36:29;14.80;99.90
6690;DHT22;3382;51.576;8.076;2024-02-21T10:38:55;15.00;99.90
6690;DHT22;3382;51.576;8.076;2024-02-21T10:41:21;14.80;99.90
6690;DHT22;3382;51.576;8.076;2024-02-21T10:43:52;14.80;99.90
6690;DHT22;3382;51.576;8.076;2024-02-21T10:46:24;14.80;99.90
6690;DHT22;3382;51.576;8.076;2024-02-21T10:49:22;14.80;99.90
6690;DHT22;3382;51.576;8.076;2024-02-21T10:51:55;14.80;99.90
6690;DHT22;3382;51.576;8.076;2024-02-21T10:54:35;14.90;99.90
6690;DHT22;3382;51.576;8.076;2024-02-21T10:57:04;14.80;99.90
6690;DHT22;3382;51.576;8.076;2024-02-21T10:59:31;14.90;99.90
6690;DHT22;3382;51.576;8.076;2024-02-21T11:01:57;14.80;99.90
6690;DHT22;3382;51.576;8.076;2024-02-21T11:04:24;15.00;99.90
6690;DHT22;3382;51.576;8.076;2024-02-21T11:06:51;14.80;99.90
6690;DHT22;3382;51.576;8.076;2024-02-21T11:09:17;14.80;99.90
6690;DHT22;3382;51.576;8.076;2024-02-21T11:11:44;14.80;99.90
6690;DHT22;3382;51.576;8.076;2024-02-21T11:14:17;14.80;99.90
6690;DHT22;3382;51.576;8.076;2024-02-21T11:16:43;14.90;99.90
6690;DHT22;3382;51.576;8.076;2024-02-21T11:19:10;14.80;99.90
6690;DHT22;3382;51.576;8.076;2024-02-21T11:21:43;14.70;99.90
6690;DHT22;3382;51.576;8.076;2024-02-21T11:24:09;14.70;99.90
6690;DHT22;3382;51.576;8.076;2024-02-21T11:26:37;14.70;99.90
6690;DHT22;3382;51.576;8.076;2024-02-21T11:29:03;14.70;99.90
6690;DHT22;3382;51.576;8.076;2024-02-21T11:31:44;14.80;99.90
6690;DHT22;3382;51.576;8.076;2024-02-21T11:34:12;14.60;99.90
6690;DHT22;3382;51.576;8.076;2024-02-21T11:36:51;14.50;99.90
6690;DHT22;3382;51.576;8.076;2024-02-21T11:39:25;14.50;99.90
6690;DHT22;3382;51.576;8.076;2024-02-21T11:42:04;14.50;99.90
6690;DHT22;3382;51.576;8.076;2024-02-21T11:44:31;14.50;99.90
6690;DHT22;3382;51.576;8.076;2024-02-21T11:46:58;14.50;99.90
6690;DHT22;3382;51.576;8.076;2024-02-21T11:49:28;14.50;99.90
6690;DHT22;3382;51.576;8.076;2024-02-21T11:52:04;14.60;99.90
6690;DHT22;3382;51.576;8.076;2024-02-21T11:54:30;14.60;99.90
6690;DHT22;3382;51.576;8.076;2024-02-21T11:56:56;14.60;99.90
6690;DHT22;3382;51.576;8.076;2024-02-21T11:59:21;14.60;99.90
6690;DHT22;3382;51.576;8.076;2024-02-21T12:01:48;14.70;99.90
6690;DHT22;3382;51.576;8.076;2024-02-21T12:04:13;14.70;99.90
6690;DHT22;3382;51.576;8.076;2024-02-21T12:06:39;14.80;99.90
6690;DHT22;3382;51.576;8.076;2024-02-21T12:09:07;14.70;99.90
6690;DHT22;3382;51.576;8.076;2024-02-21T12:11:36;14.80;99.90
6690;DHT22;3382;51.576;8.076;2024-02-21T12:14:03;14.80;99.90
6690;DHT22;3382;51.576;8.076;2024-02-21T12:16:33;14.80;99.90
6690;DHT22;3382;51.576;8.076;2024-02-21T12:19:00;14.90;99.90
6690;DHT22;3382;51.576;8.076;2024-02-21T12:21:34;14.90;99.90
6690;DHT22;3382;51.576;8.076;2024-02-21T12:24:15;14.90;99.90
6690;DHT22;3382;51.576;8.076;2024-02-21T12:26:41;14.90;99.90
6690;DHT22;3382;51.576;8.076;2024-02-21T12:29:07;14.90;99.90
6690;DHT22;3382;51.576;8.076;2024-02-21T12:31:37;15.00;99.90
6690;DHT22;3382;51.576;8.076;2024-02-21T12:34:02;15.00;99.90
6690;DHT22;3382;51.576;8.076;2024-02-21T12:36:29;15.30;99.90
6690;DHT22;3382;51.576;8.076;2024-02-21T12:38:55;14.90;99.90
6690;DHT22;3382;51.576;8.076;2024-02-21T12:41:21;14.90;99.90
6690;DHT22;3382;51.576;8.076;2024-02-21T12:43:46;14.90;99.90
6690;DHT22;3382;51.576;8.076;2024-02-21T12:46:12;14.90;99.90
6690;DHT22;3382;51.576;8.076;2024-02-21T12:48:38;14.90;99.90
6690;DHT22;3382;51.576;8.076;2024-02-21T12:51:04;14.90;99.90
6690;DHT22;3382;51.576;8.076;2024-02-21T12:53:29;14.90;99.90
6690;DHT22;3382;51.576;8.076;2024-02-21T12:55:55;14.90;99.90
6690;DHT22;3382;51.576;8.076;2024-02-21T12:58:22;14.90;99.90
6690;DHT22;3382;51.576;8.076;2024-02-21T13:00:47;15.00;99.90
6690;DHT22;3382;51.576;8.076;2024-02-21T13:03:13;15.00;99.90
6690;DHT22;3382;51.576;8.076;2024-02-21T13:05:39;15.10;99.90
6690;DHT22;3382;51.576;8.076;2024-02-21T13:08:09;15.10;99.90
6690;DHT22;3382;51.576;8.076;2024-02-21T13:10:34;15.30;99.90
6690;DHT22;3382;51.576;8.076;2024-02-21T13:13:01;15.10;99.90
6690;DHT22;3382;51.576;8.076;2024-02-21T13:15:27;15.30;99.90
6690;DHT22;3382;51.576;8.076;2024-02-21T13:17:54;15.20;99.90
6690;DHT22;3382;51.576;8.076;2024-02-21T13:20:20;15.20;99.90
6690;DHT22;3382;51.576;8.076;2024-02-21T13:22:46;15.20;99.90
6690;DHT22;3382;51.576;8.076;2024-02-21T13:25:12;15.20;99.90
6690;DHT22;3382;51.576;8.076;2024-02-21T13:27:41;15.20;99.90
6690;DHT22;3382;51.576;8.076;2024-02-21T13:30:07;15.30;99.90
6690;DHT22;3382;51.576;8.076;2024-02-21T13:32:34;15.30;99.90
6690;DHT22;3382;51.576;8.076;2024-02-21T13:35:00;15.30;99.90
6690;DHT22;3382;51.576;8.076;2024-02-21T13:37:27;15.30;99.90
6690;DHT22;3382;51.576;8.076;2024-02-21T13:39:53;15.40;99.90
6690;DHT22;3382;51.576;8.076;2024-02-21T13:42:19;15.40;99.90
6690;DHT22;3382;51.576;8.076;2024-02-21T13:44:45;15.40;99.90
6690;DHT22;3382;51.576;8.076;2024-02-21T13:47:14;15.60;99.90
6690;DHT22;3382;51.576;8.076;2024-02-21T13:49:40;15.50;99.90
6690;DHT22;3382;51.576;8.076;2024-02-21T13:52:06;15.50;99.90
6690;DHT22;3382;51.576;8.076;2024-02-21T13:54:32;15.50;99.90
6690;DHT22;3382;51.576;8.076;2024-02-21T13:56:57;15.60;99.90
6690;DHT22;3382;51.576;8.076;2024-02-21T13:59:23;15.60;99.90
6690;DHT22;3382;51.576;8.076;2024-02-21T14:01:48;15.70;99.90
6690;DHT22;3382;51.576;8.076;2024-02-21T14:04:14;15.80;99.90
6690;DHT22;3382;51.576;8.076;2024-02-21T14:06:40;15.60;99.90
6690;DHT22;3382;51.576;8.076;2024-02-21T14:09:11;15.90;99.90
6690;DHT22;3382;51.576;8.076;2024-02-21T14:11:37;15.70;99.90
6690;DHT22;3382;51.576;8.076;2024-02-21T14:14:04;15.80;99.90
6690;DHT22;3382;51.576;8.076;2024-02-21T14:16:30;15.70;99.90
6690;DHT22;3382;51.576;8.076;2024-02-21T14:18:55;15.70;99.90
6690;DHT22;3382;51.576;8.076;2024-02-21T14:21:21;15.70;99.90
6690;DHT22;3382;51.576;8.076;2024-02-21T14:23:47;15.80;99.90
6690;DHT22;3382;51.576;8.076;2024-02-21T14:26:12;16.00;99.90
6690;DHT22;3382;51.576;8.076;2024-02-21T14:28:39;15.70;99.90
6690;DHT22;3382;51.576;8.076;2024-02-21T14:31:05;15.70;99.90
6690;DHT22;3382;51.576;8.076;2024-02-21T14:33:34;15.80;99.90
6690;DHT22;3382;51.576;8.076;2024-02-21T14:36:00;15.60;99.90
6690;DHT22;3382;51.576;8.076;2024-02-21T14:38:26;15.70;99.90
6690;DHT22;3382;51.576;8.076;2024-02-21T14:40:52;15.60;99.90
6690;DHT22;3382;51.576;8.076;2024-02-21T14:43:18;15.60;99.90
6690;DHT22;3382;51.576;8.076;2024-02-21T14:45:47;15.50;99.90
6690;DHT22;3382;51.576;8.076;2024-02-21T14:48:16;15.50;99.90
6690;DHT22;3382;51.576;8.076;2024-02-21T14:50:41;15.50;99.90
6690;DHT22;3382;51.576;8.076;2024-02-21T14:53:10;15.60;99.90
6690;DHT22;3382;51.576;8.076;2024-02-21T14:55:36;15.50;99.90
6690;DHT22;3382;51.576;8.076;2024-02-21T14:58:02;15.50;99.90
6690;DHT22;3382;51.576;8.076;2024-02-21T15:00:27;15.50;99.90
6690;DHT22;3382;51.576;8.076;2024-02-21T15:02:59;15.60;99.90
6690;DHT22;3382;51.576;8.076;2024-02-21T15:05:25;15.50;99.90
6690;DHT22;3382;51.576;8.076;2024-02-21T15:07:56;15.50;99.90
6690;DHT22;3382;51.576;8.076;2024-02-21T15:10:23;15.40;99.90
6690;DHT22;3382;51.576;8.076;2024-02-21T15:12:48;15.40;99.90
6690;DHT22;3382;51.576;8.076;2024-02-21T15:15:14;15.40;99.90
6690;DHT22;3382;51.576;8.076;2024-02-21T15:17:40;15.40;99.90
6690;DHT22;3382;51.576;8.076;2024-02-21T15:20:06;15.40;99.90
6690;DHT22;3382;51.576;8.076;2024-02-21T15:22:36;15.30;99.90
6690;DHT22;3382;51.576;8.076;2024-02-21T15:25:02;15.30;99.90
6690;DHT22;3382;51.576;8.076;2024-02-21T15:27:31;15.30;99.90
6690;DHT22;3382;51.576;8.076;2024-02-21T15:29:57;15.20;99.90
6690;DHT22;3382;51.576;8.076;2024-02-21T15:32:23;15.20;99.90
6690;DHT22;3382;51.576;8.076;2024-02-21T15:34:48;15.20;99.90
6690;DHT22;3382;51.576;8.076;2024-02-21T15:37:14;15.00;99.90
6690;DHT22;3382;51.576;8.076;2024-02-21T15:39:42;15.10;99.90
6690;DHT22;3382;51.576;8.076;2024-02-21T15:42:11;15.10;99.90
6690;DHT22;3382;51.576;8.076;2024-02-21T15:44:37;15.30;99.90
6690;DHT22;3382;51.576;8.076;2024-02-21T15:47:03;15.20;99.90
6690;DHT22;3382;51.576;8.076;2024-02-21T15:49:28;15.10;99.90
6690;DHT22;3382;51.576;8.076;2024-02-21T15:51:54;15.10;99.90
6690;DHT22;3382;51.576;8.076;2024-02-21T15:54:20;15.10;99.90
6690;DHT22;3382;51.576;8.076;2024-02-21T15:56:45;14.90;99.90
6690;DHT22;3382;51.576;8.076;2024-02-21T15:59:12;14.90;99.90